Terminal Aerodrome Forecast
Issued by NWS

Home | Current Version | Previous Version | Text Only | Print | Product List | Glossary On
Versions: 1 2 3 4 5 6 7 8 9 10 11 12
001
FTUS45 KABQ 191123
TAFFMN
TAF
KFMN 191123Z 1912/2012 12011KT P6SM VCSH BKN060
      TEMPO 1912/1916 -RA BKN035
     FM191600 15010KT P6SM VCSH OVC040
     FM192000 26013KT 6SM -SHRA BR OVC045
     FM200400 28008KT 3SM BR OVC020=

USA.gov is the U.S. government's official web portal to all federal, state and local government web resources and services.